Huvudsida
METAR-TAF:

METAR-TAF

Flygplatser :

Vasa flygplats

Vasa, Finland

latitud: 63-03N, longitud: 021-46E, höjd: 4 m

Aktuellt väderrapport

Denna rapport gjordes för 36 minuter sedan, klockan 20:50 UTC
Vind 9 kt från väst
Temperatur 4°C
Fuktighet 75%
Tryck 1005 hPa
Sikt 10 km eller mer
lätta regnskurar

METAR: EFVA 082050Z AUTO 28009KT 9999 -SHRA NSC 04/M00 Q1005

Tid: 00:26 (21:26 UTC)

Väderprognos

Denna rapport gjordes för 59 minuter sedan, klockan 20:27 UTC
Prognos gäller från 08 kl. 21 UTC till 09 kl. 21 UTC
Vind 8 kt från väst
Sikt 10 km eller mer
Inga moln under 1 500 m eller inga cumulonimbus
Sannolikhet 40% :
Temporärt
från 08 kl. 21 UTC till 08 kl. 23 UTC
Sikt: 6000 m
Brutna moln på en höjd av 500 ft
lätt regn, snö

TAF: EFVA 082027Z 0821/0921 28008KT CAVOK PROB40 TEMPO 0821/0823 6000 -RASN BKN005

Aktuella väderrapporter och prognoser från 4000 flygplatser (METAR- och TAF-rapporter).

De tillgängliga stationerna syns som gula och röda prickar på kartan.

För musen över prickarna för att se namnen på stationerna.

Klicka sedan för att få väderrapporter och prognoser.

För att ändra kartan: Klicka på de gröna knapparna med ett svart kors på för att zooma in; den gröna knappen med ett streck på för att zooma ut; eller på de gröna pilarna för angränsande kartor.


METAR-TAF: